Terminal Aerodrome Forecast
Issued by NWS Newport/Morehead City, NC

Home | Current Version | Previous Version | Text Only | Print | Product List | Glossary Off
Versions: 1 2 3 4 5 6 7 8 9 10 11 12 13 14 15 16 17 18 19 20

000
FTUS42 KMHX 300500
TAFEWN
TAF
KEWN 300537Z 3006/0106 01005KT P6SM SCT050 BKN100
     FM300900 01003KT 1SM BR BKN003
     FM301330 02005KT P6SM SCT050 BKN100
     FM301800 04005KT P6SM SCT050=

USA.gov is the U.S. government's official web portal to all federal, state and local government web resources and services.